M I D A S
Marine Information and Data Acquisition System
Tripno 430 of the Zeeleeuw from 2003-02-13 07:17:29 to 2003-02-13 14:59:40
Back to CruiseResearch ActivitiesStationsMapUnderway DataData graphs

EquipmentUnitsComments
TimeDGPSUTC
LatitudeDGPSDM.mWGS84
LongitudeDGPSDM.mWGS84
SpeedMeteo Stationm/sRelative wind speed
DirectionMeteo StationdegRelative wind direction
TemperatureMeteo Stationdeg CelciusAir temperature
PressureMeteo StationPaAtmospheric pressure
HumidityMeteo Station%Relative humidity
Missing or incorrect values are displayed as -999
Metereological data collected by the RV Zeeleeuw from 2003-02-13 07:17:29 to 2003-02-13 14:59:40
                                                                                    Next 1000 lines
Time Latitude Longitude Speed Direction Temperature Pressure Humidity
2003-02-13 07:17:37 51°13.595 2°56.103 3.4 269 -3 102830 83
2003-02-13 07:17:42 51°13.595 2°56.103 2.5 249 -3 102830 83
2003-02-13 07:17:47 51°13.595 2°56.103 2.7 262 -3 102830 83
2003-02-13 07:17:52 51°13.595 2°56.103 2.3 274 -3 102830 83
2003-02-13 07:17:57 51°13.595 2°56.103 2.4 284 -2.9 102830 83
2003-02-13 07:18:02 51°13.595 2°56.103 2.2 253 -2.9 102830 83
2003-02-13 07:18:07 51°13.595 2°56.103 1.8 260 -3 102830 83
2003-02-13 07:18:12 51°13.594 2°56.103 2.9 250 -3 102830 83
2003-02-13 07:18:17 51°13.594 2°56.103 2.5 269 -2.9 102840 83
2003-02-13 07:18:22 51°13.594 2°56.103 2.3 281 -2.9 102840 83
2003-02-13 07:18:27 51°13.594 2°56.103 2.9 283 -2.9 102830 83
2003-02-13 07:18:32 51°13.594 2°56.103 2.8 253 -2.9 102830 83
2003-02-13 07:18:37 51°13.594 2°56.103 3.1 238 -3 102830 83
2003-02-13 07:18:42 51°13.594 2°56.102 2.2 248 -3 102830 83
2003-02-13 07:18:47 51°13.594 2°56.102 1.7 272 -2.9 102840 83
2003-02-13 07:18:52 51°13.594 2°56.101 1.6 280 -2.9 102840 83
2003-02-13 07:18:57 51°13.595 2°56.1 1.9 280 -3 102830 83
2003-02-13 07:19:02 51°13.596 2°56.097 1.7 264 -3 102830 83
2003-02-13 07:19:07 51°13.596 2°56.094 1.8 280 -3 102840 83
2003-02-13 07:19:12 51°13.597 2°56.09 1.3 306 -3 102840 83
2003-02-13 07:19:16 51°13.598 2°56.086 1.3 304 -3 102830 83
2003-02-13 07:19:22 51°13.6 2°56.081 0.9 263 -3 102830 83
2003-02-13 07:19:27 51°13.601 2°56.075 0.5 270 -2.9 102830 83
2003-02-13 07:19:32 51°13.603 2°56.069 0.9 359 -2.9 102830 83
2003-02-13 07:19:37 51°13.605 2°56.062 0.8 353 -3 102830 83
2003-02-13 07:19:42 51°13.606 2°56.055 0.6 330 -3 102830 83
2003-02-13 07:19:47 51°13.608 2°56.048 1.3 3 -3 102840 83
2003-02-13 07:19:52 51°13.61 2°56.04 1.4 342 -3 102840 83
2003-02-13 07:19:57 51°13.612 2°56.031 1 295 -3 102840 83
2003-02-13 07:20:02 51°13.614 2°56.023 1.1 329 -3 102840 83
2003-02-13 07:20:07 51°13.617 2°56.014 1.5 315 -3 102840 83
2003-02-13 07:20:12 51°13.619 2°56.006 1 317 -3 102840 83
2003-02-13 07:20:17 51°13.621 2°55.998 1.5 316 -3 102840 83
2003-02-13 07:20:22 51°13.623 2°55.99 1.3 316 -3 102840 83
2003-02-13 07:20:27 51°13.626 2°55.982 1 312 -3 102840 83
2003-02-13 07:20:32 51°13.628 2°55.974 0.8 323 -3 102840 83
2003-02-13 07:20:37 51°13.631 2°55.967 1.1 356 -3 102840 83
2003-02-13 07:20:42 51°13.634 2°55.959 1.2 356 -3 102840 83
2003-02-13 07:20:47 51°13.636 2°55.951 1.1 12 -3 102840 83
2003-02-13 07:20:52 51°13.639 2°55.943 1 26 -3 102840 83
2003-02-13 07:20:57 51°13.642 2°55.935 0.5 354 -2.9 102840 83
2003-02-13 07:21:02 51°13.645 2°55.927 1.1 18 -2.9 102840 83
2003-02-13 07:21:07 51°13.648 2°55.919 1.4 338 -3 102840 83
2003-02-13 07:21:12 51°13.652 2°55.911 1.1 333 -3 102840 83
2003-02-13 07:21:17 51°13.655 2°55.904 0.7 330 -3 102840 83
2003-02-13 07:21:22 51°13.657 2°55.896 1 309 -3 102840 83
2003-02-13 07:21:27 51°13.66 2°55.89 1 297 -2.9 102840 83
2003-02-13 07:21:32 51°13.662 2°55.885 1.1 300 -2.9 102840 83
2003-02-13 07:21:37 51°13.664 2°55.881 1 7 -2.9 102840 83
2003-02-13 07:21:42 51°13.665 2°55.878 1.4 295 -2.9 102840 83
2003-02-13 07:21:47 51°13.666 2°55.876 1.5 273 -3 102840 83
2003-02-13 07:21:52 51°13.667 2°55.874 1.7 260 -3 102840 83
2003-02-13 07:21:57 51°13.668 2°55.873 1.9 281 -2.9 102840 83
2003-02-13 07:22:02 51°13.668 2°55.871 2.1 264 -2.9 102840 83
2003-02-13 07:22:07 51°13.669 2°55.868 2.3 285 -3 102840 83
2003-02-13 07:22:12 51°13.67 2°55.865 1.6 292 -3 102840 83
2003-02-13 07:22:16 51°13.671 2°55.862 0.7 340 -2.9 102840 83
2003-02-13 07:22:22 51°13.673 2°55.856 1.5 315 -2.9 102840 83
2003-02-13 07:22:27 51°13.674 2°55.851 2.5 298 -3 102840 83
2003-02-13 07:22:32 51°13.675 2°55.845 2.1 304 -3 102840 83
2003-02-13 07:22:37 51°13.677 2°55.839 1.7 329 -2.9 102840 83
2003-02-13 07:22:42 51°13.678 2°55.832 1.1 294 -2.9 102840 83
2003-02-13 07:22:47 51°13.679 2°55.825 1.6 302 -2.9 102840 83
2003-02-13 07:22:52 51°13.68 2°55.817 2 274 -2.9 102840 83
2003-02-13 07:22:57 51°13.681 2°55.81 2 276 -2.9 102840 83
2003-02-13 07:23:02 51°13.682 2°55.802 1.8 292 -2.9 102840 83
2003-02-13 07:23:07 51°13.682 2°55.794 1.8 276 -2.9 102840 83
2003-02-13 07:23:12 51°13.683 2°55.785 1.6 274 -2.9 102840 83
2003-02-13 07:23:17 51°13.683 2°55.777 1.5 264 -2.9 102840 83
2003-02-13 07:23:22 51°13.684 2°55.77 1.5 255 -2.9 102840 83
2003-02-13 07:23:27 51°13.684 2°55.762 1.7 252 -2.9 102840 83
2003-02-13 07:23:32 51°13.684 2°55.755 2 248 -2.9 102840 83
2003-02-13 07:23:37 51°13.684 2°55.748 1.7 244 -3 102840 83
2003-02-13 07:23:42 51°13.684 2°55.741 2.2 237 -3 102840 83
2003-02-13 07:23:47 51°13.684 2°55.735 2.1 240 -3 102840 83
2003-02-13 07:23:52 51°13.684 2°55.729 2.9 223 -3 102840 83
2003-02-13 07:23:57 51°13.684 2°55.725 2.7 214 -3 102840 83
2003-02-13 07:24:02 51°13.684 2°55.723 2.7 229 -3 102840 83
2003-02-13 07:24:07 51°13.685 2°55.722 2.7 229 -2.9 102840 83
2003-02-13 07:24:12 51°13.685 2°55.721 3.1 211 -2.9 102840 83
2003-02-13 07:24:17 51°13.686 2°55.722 3.5 215 -2.9 102840 83
2003-02-13 07:24:22 51°13.687 2°55.722 3.2 207 -2.9 102840 83
2003-02-13 07:24:27 51°13.688 2°55.723 2.6 206 -2.9 102840 83
2003-02-13 07:24:32 51°13.69 2°55.724 3.3 218 -2.9 102840 83
2003-02-13 07:24:37 51°13.691 2°55.725 3.2 195 -2.9 102840 83
2003-02-13 07:24:42 51°13.693 2°55.726 3 191 -2.9 102840 83
2003-02-13 07:24:47 51°13.695 2°55.727 3.3 208 -2.9 102840 83
2003-02-13 07:24:52 51°13.698 2°55.728 3.3 203 -2.9 102840 83
2003-02-13 07:24:56 51°13.7 2°55.729 3.3 195 -3 102840 83
2003-02-13 07:25:02 51°13.704 2°55.73 3.5 176 -3 102840 83
2003-02-13 07:25:07 51°13.707 2°55.73 3.8 161 -2.9 102840 83
2003-02-13 07:25:12 51°13.71 2°55.729 3.3 168 -2.9 102840 83
2003-02-13 07:25:17 51°13.713 2°55.728 2.9 171 -2.9 102840 83
2003-02-13 07:25:22 51°13.718 2°55.727 2.9 159 -2.9 102840 83
2003-02-13 07:25:27 51°13.722 2°55.725 3.7 160 -2.9 102830 83
2003-02-13 07:25:31 51°13.725 2°55.724 2.5 182 -2.9 102830 83
2003-02-13 07:25:37 51°13.731 2°55.72 2.7 178 -2.9 102840 83
2003-02-13 07:25:42 51°13.736 2°55.717 2.5 178 -2.9 102840 83
2003-02-13 07:25:47 51°13.741 2°55.714 3.2 178 -2.9 102840 83
2003-02-13 07:25:52 51°13.746 2°55.71 3.2 161 -2.9 102840 83
2003-02-13 07:25:57 51°13.751 2°55.706 2.7 155 -2.9 102840 83
2003-02-13 07:26:02 51°13.757 2°55.702 2.4 188 -2.9 102840 83
2003-02-13 07:26:07 51°13.762 2°55.698 2.5 205 -2.9 102840 83
2003-02-13 07:26:12 51°13.768 2°55.693 2.7 180 -2.9 102840 83
2003-02-13 07:26:16 51°13.773 2°55.689 3.5 181 -2.9 102840 83
2003-02-13 07:26:22 51°13.78 2°55.683 2.7 179 -2.9 102840 83
2003-02-13 07:26:27 51°13.787 2°55.677 2.9 187 -2.9 102840 83
2003-02-13 07:26:32 51°13.793 2°55.671 2.4 181 -2.9 102840 83
2003-02-13 07:26:36 51°13.798 2°55.666 2.1 218 -2.9 102840 83
2003-02-13 07:26:42 51°13.806 2°55.658 2.2 221 -2.9 102840 83
2003-02-13 07:26:46 51°13.811 2°55.653 2.4 207 -2.9 102840 83
2003-02-13 07:26:51 51°13.818 2°55.647 2.5 197 -2.9 102840 83
2003-02-13 07:26:56 51°13.825 2°55.64 2.7 190 -3 102840 83
2003-02-13 07:27:01 51°13.833 2°55.634 3.5 183 -3 102840 83
2003-02-13 07:27:07 51°13.842 2°55.627 3.7 194 -2.9 102840 83
2003-02-13 07:27:11 51°13.849 2°55.622 3.1 202 -2.9 102840 83
2003-02-13 07:27:16 51°13.857 2°55.616 3.3 200 -2.9 102840 83
2003-02-13 07:27:22 51°13.868 2°55.608 4.4 208 -2.9 102840 83
2003-02-13 07:27:27 51°13.876 2°55.602 3.3 200 -2.9 102840 83
2003-02-13 07:27:32 51°13.886 2°55.595 2.6 177 -2.9 102840 83
2003-02-13 07:27:37 51°13.895 2°55.588 2.9 195 -2.9 102840 83
2003-02-13 07:27:42 51°13.904 2°55.581 3.2 200 -2.9 102840 83
2003-02-13 07:27:47 51°13.914 2°55.574 3.8 189 -2.9 102830 83
2003-02-13 07:27:52 51°13.925 2°55.566 3.6 189 -2.9 102830 83
2003-02-13 07:27:57 51°13.935 2°55.558 3.5 192 -2.9 102840 83
2003-02-13 07:28:02 51°13.946 2°55.55 3.5 191 -2.9 102840 83
2003-02-13 07:28:07 51°13.957 2°55.543 3.5 191 -2.9 102840 83
2003-02-13 07:28:12 51°13.968 2°55.535 4.8 201 -2.9 102840 83
2003-02-13 07:28:17 51°13.979 2°55.528 4.2 202 -2.9 102830 83
2003-02-13 07:28:22 51°13.991 2°55.521 4.6 199 -2.9 102830 83
2003-02-13 07:28:26 51°14 2°55.515 4.2 194 -2.9 102830 83
2003-02-13 07:28:31 51°14.012 2°55.507 3.7 197 -2.9 102830 83
2003-02-13 07:28:37 51°14.026 2°55.499 3.9 203 -2.9 102830 84
2003-02-13 07:28:42 51°14.038 2°55.491 3.7 192 -2.9 102830 84
2003-02-13 07:28:46 51°14.047 2°55.484 3.8 193 -2.9 102830 84
2003-02-13 07:28:51 51°14.059 2°55.476 3.8 191 -2.9 102830 84
2003-02-13 07:28:56 51°14.07 2°55.468 3.9 207 -2.9 102830 84
2003-02-13 07:29:01 51°14.082 2°55.46 4.4 198 -2.9 102830 84
2003-02-13 07:29:07 51°14.097 2°55.449 4.6 195 -2.9 102830 84
2003-02-13 07:29:12 51°14.108 2°55.441 4.5 173 -2.9 102830 84
2003-02-13 07:29:17 51°14.12 2°55.432 3.4 214 -2.9 102830 84
2003-02-13 07:29:22 51°14.132 2°55.423 4.7 198 -2.9 102830 84
2003-02-13 07:29:27 51°14.144 2°55.414 4.7 191 -2.9 102830 84
2003-02-13 07:29:32 51°14.155 2°55.405 3.6 205 -2.9 102830 84
2003-02-13 07:29:37 51°14.166 2°55.395 4 208 -2.9 102830 84
2003-02-13 07:29:42 51°14.178 2°55.385 4.1 195 -2.9 102830 84
2003-02-13 07:29:47 51°14.189 2°55.374 3.7 182 -2.9 102840 84
2003-02-13 07:29:51 51°14.197 2°55.366 3.8 182 -2.9 102840 84
2003-02-13 07:29:56 51°14.208 2°55.354 4.3 200 -2.9 102830 84
2003-02-13 07:30:01 51°14.219 2°55.342 3.8 184 -2.9 102830 84
2003-02-13 07:30:06 51°14.229 2°55.329 3.7 196 -2.9 102830 84
2003-02-13 07:30:12 51°14.241 2°55.314 3.6 197 -2.9 102830 84
2003-02-13 07:30:17 51°14.251 2°55.3 2.9 184 -2.9 102830 84
2003-02-13 07:30:22 51°14.26 2°55.286 3.2 195 -2.9 102830 84
2003-02-13 07:30:27 51°14.269 2°55.271 3.2 215 -2.9 102830 84
2003-02-13 07:30:32 51°14.277 2°55.256 2.9 199 -2.9 102830 84
2003-02-13 07:30:36 51°14.284 2°55.244 3.2 179 -2.9 102840 84
2003-02-13 07:30:42 51°14.294 2°55.225 2.4 182 -2.9 102840 84
2003-02-13 07:30:47 51°14.303 2°55.209 3 190 -2.9 102840 84
2003-02-13 07:30:51 51°14.309 2°55.197 3.2 206 -2.9 102840 84
2003-02-13 07:30:56 51°14.318 2°55.181 3.5 195 -2.9 102840 84
2003-02-13 07:31:01 51°14.326 2°55.165 3.6 182 -2.9 102840 84
2003-02-13 07:31:06 51°14.334 2°55.149 3.2 199 -2.9 102840 84
2003-02-13 07:31:11 51°14.343 2°55.133 2.8 164 -2.9 102840 84
2003-02-13 07:31:16 51°14.351 2°55.118 3.1 173 -2.9 102840 84
2003-02-13 07:31:21 51°14.36 2°55.102 3.1 213 -2.9 102840 84
2003-02-13 07:31:26 51°14.368 2°55.087 3.7 201 -2.9 102840 84
2003-02-13 07:31:31 51°14.378 2°55.073 2.7 165 -2.9 102840 84
2003-02-13 07:31:36 51°14.388 2°55.06 3.5 206 -2.9 102840 84
2003-02-13 07:31:41 51°14.398 2°55.047 3.2 170 -2.9 102840 84
2003-02-13 07:31:46 51°14.408 2°55.034 4.7 166 -2.9 102840 84
2003-02-13 07:31:51 51°14.418 2°55.02 4.3 168 -2.9 102840 84
2003-02-13 07:31:56 51°14.428 2°55.007 5.1 167 -2.9 102840 84
2003-02-13 07:32:01 51°14.439 2°54.993 4.7 169 -2.9 102840 84
2003-02-13 07:32:07 51°14.45 2°54.977 4.3 158 -2.8 102830 84
2003-02-13 07:32:11 51°14.458 2°54.967 3.9 159 -2.8 102830 84
2003-02-13 07:32:16 51°14.468 2°54.953 4.3 164 -2.8 102840 85
2003-02-13 07:32:21 51°14.477 2°54.939 3.8 163 -2.8 102840 85
2003-02-13 07:32:26 51°14.487 2°54.925 3.9 157 -2.8 102840 85
2003-02-13 07:32:32 51°14.498 2°54.908 3.2 159 -2.8 102840 85
2003-02-13 07:32:36 51°14.505 2°54.896 3.8 151 -2.8 102830 85
2003-02-13 07:32:41 51°14.514 2°54.881 4.3 157 -2.8 102830 85
2003-02-13 07:32:46 51°14.523 2°54.867 3.7 162 -2.8 102840 85
2003-02-13 07:32:51 51°14.532 2°54.852 4.4 166 -2.8 102840 85
2003-02-13 07:32:56 51°14.542 2°54.838 4.7 165 -2.8 102840 85
2003-02-13 07:33:01 51°14.552 2°54.824 4.9 165 -2.8 102840 85
2003-02-13 07:33:06 51°14.562 2°54.81 4.7 159 -2.8 102840 85
2003-02-13 07:33:11 51°14.574 2°54.795 4.5 161 -2.8 102840 85
2003-02-13 07:33:16 51°14.585 2°54.779 4.5 177 -2.8 102840 85
2003-02-13 07:33:21 51°14.597 2°54.763 5.5 172 -2.8 102840 85
2003-02-13 07:33:26 51°14.609 2°54.747 5.5 173 -2.8 102840 85
2003-02-13 07:33:31 51°14.621 2°54.73 4.5 175 -2.8 102840 85
2003-02-13 07:33:36 51°14.634 2°54.712 4.4 182 -2.8 102840 85
2003-02-13 07:33:41 51°14.646 2°54.694 4.4 170 -2.8 102840 85
2003-02-13 07:33:46 51°14.657 2°54.676 4.5 170 -2.7 102840 85
2003-02-13 07:33:51 51°14.669 2°54.657 3.7 178 -2.7 102840 85
2003-02-13 07:33:56 51°14.68 2°54.637 4.4 173 -2.7 102840 85
2003-02-13 07:34:01 51°14.691 2°54.617 3.4 178 -2.7 102840 85
2003-02-13 07:34:06 51°14.701 2°54.595 3.1 175 -2.7 102840 85
2003-02-13 07:34:11 51°14.709 2°54.572 3.4 179 -2.7 102840 85
2003-02-13 07:34:16 51°14.716 2°54.549 2.8 161 -2.7 102840 85
2003-02-13 07:34:21 51°14.722 2°54.524 2.3 160 -2.7 102840 85
2003-02-13 07:34:26 51°14.726 2°54.499 1.6 167 -2.7 102840 85
2003-02-13 07:34:31 51°14.73 2°54.473 1.5 179 -2.7 102840 85
2003-02-13 07:34:36 51°14.733 2°54.448 1.2 191 -2.7 102840 85
2003-02-13 07:34:41 51°14.735 2°54.422 0.6 216 -2.7 102840 85
2003-02-13 07:34:46 51°14.735 2°54.396 1 250 -2.7 102840 85
2003-02-13 07:34:52 51°14.735 2°54.364 1 251 -2.7 102840 85
2003-02-13 07:34:56 51°14.734 2°54.343 0.7 247 -2.6 102840 85
2003-02-13 07:35:01 51°14.734 2°54.317 0.6 216 -2.6 102840 85
2003-02-13 07:35:06 51°14.736 2°54.291 1.2 170 -2.6 102850 85
2003-02-13 07:35:11 51°14.74 2°54.265 1.2 181 -2.6 102850 85
2003-02-13 07:35:16 51°14.743 2°54.239 1.7 172 -2.6 102850 85
2003-02-13 07:35:20 51°14.746 2°54.218 1.3 196 -2.6 102850 85
2003-02-13 07:35:27 51°14.751 2°54.182 1.8 189 -2.7 102850 85
2003-02-13 07:35:31 51°14.754 2°54.161 1.7 205 -2.7 102850 85
2003-02-13 07:35:36 51°14.759 2°54.135 2.1 197 -2.6 102850 85
2003-02-13 07:35:41 51°14.763 2°54.108 2.6 193 -2.6 102850 85
2003-02-13 07:35:47 51°14.769 2°54.078 2 182 -2.7 102850 85
2003-02-13 07:35:51 51°14.773 2°54.057 2.2 185 -2.7 102850 85
2003-02-13 07:35:56 51°14.779 2°54.031 2.6 187 -2.6 102850 85
2003-02-13 07:36:00 51°14.783 2°54.011 2.5 178 -2.6 102850 85
2003-02-13 07:36:06 51°14.79 2°53.98 2.9 169 -2.6 102840 85
2003-02-13 07:36:11 51°14.796 2°53.954 1.9 183 -2.6 102840 85
2003-02-13 07:36:16 51°14.801 2°53.928 1.6 183 -2.6 102840 85
2003-02-13 07:36:21 51°14.806 2°53.903 1.6 180 -2.6 102840 85
2003-02-13 07:36:26 51°14.812 2°53.877 1.6 197 -2.6 102840 85
2003-02-13 07:36:31 51°14.818 2°53.852 1.9 213 -2.6 102840 85
2003-02-13 07:36:36 51°14.824 2°53.826 2 215 -2.6 102840 85
2003-02-13 07:36:41 51°14.829 2°53.8 1.9 210 -2.6 102840 85
2003-02-13 07:36:46 51°14.835 2°53.775 2.1 213 -2.6 102850 84
2003-02-13 07:36:51 51°14.84 2°53.749 2 208 -2.6 102850 84
2003-02-13 07:36:56 51°14.846 2°53.724 2.1 217 -2.6 102840 84
2003-02-13 07:37:01 51°14.851 2°53.698 2.4 199 -2.6 102840 84
2003-02-13 07:37:06 51°14.856 2°53.672 2.7 178 -2.6 102850 84
2003-02-13 07:37:11 51°14.861 2°53.646 2.4 179 -2.6 102850 84
2003-02-13 07:37:16 51°14.866 2°53.621 2.7 167 -2.6 102850 84
2003-02-13 07:37:20 51°14.87 2°53.6 2.2 161 -2.6 102850 84
2003-02-13 07:37:26 51°14.876 2°53.569 2.2 175 -2.6 102840 84
2003-02-13 07:37:31 51°14.881 2°53.544 1.9 174 -2.6 102840 84
2003-02-13 07:37:36 51°14.886 2°53.518 1.9 174 -2.6 102850 84
2003-02-13 07:37:41 51°14.892 2°53.492 1.5 176 -2.6 102850 84
2003-02-13 07:37:46 51°14.897 2°53.467 1.3 178 -2.6 102850 85
2003-02-13 07:37:51 51°14.903 2°53.441 1.4 176 -2.6 102850 85
2003-02-13 07:37:56 51°14.908 2°53.414 1.4 180 -2.5 102850 85
2003-02-13 07:38:01 51°14.913 2°53.387 1.3 187 -2.5 102850 85
2003-02-13 07:38:06 51°14.919 2°53.36 2 199 -2.5 102850 85
2003-02-13 07:38:11 51°14.925 2°53.332 2 206 -2.5 102850 85
2003-02-13 07:38:16 51°14.931 2°53.304 2 217 -2.5 102840 85
2003-02-13 07:38:21 51°14.937 2°53.276 2.3 197 -2.5 102840 85
2003-02-13 07:38:26 51°14.943 2°53.248 2.4 203 -2.5 102850 85
2003-02-13 07:38:31 51°14.949 2°53.219 2.4 215 -2.5 102850 85
2003-02-13 07:38:36 51°14.955 2°53.191 2.2 212 -2.5 102850 84
2003-02-13 07:38:42 51°14.963 2°53.157 3 192 -2.5 102850 84
2003-02-13 07:38:46 51°14.968 2°53.134 3.2 177 -2.5 102850 84
2003-02-13 07:38:51 51°14.974 2°53.105 2.6 178 -2.5 102850 84
2003-02-13 07:38:56 51°14.98 2°53.076 2.8 192 -2.5 102850 84
2003-02-13 07:39:01 51°14.986 2°53.047 3.1 187 -2.5 102850 84
2003-02-13 07:39:06 51°14.992 2°53.018 2.4 173 -2.4 102840 84
2003-02-13 07:39:11 51°14.998 2°52.989 2.7 169 -2.4 102840 84
2003-02-13 07:39:16 51°15.005 2°52.96 3.1 187 -2.4 102850 85
2003-02-13 07:39:21 51°15.011 2°52.931 2.9 183 -2.4 102850 85
2003-02-13 07:39:26 51°15.017 2°52.902 3.4 168 -2.4 102850 85
2003-02-13 07:39:31 51°15.023 2°52.872 3.4 166 -2.4 102850 85
2003-02-13 07:39:36 51°15.03 2°52.844 3.1 159 -2.3 102850 85
2003-02-13 07:39:41 51°15.036 2°52.814 2.7 156 -2.3 102850 85
2003-02-13 07:39:46 51°15.043 2°52.785 2.7 163 -2.3 102840 85
2003-02-13 07:39:51 51°15.049 2°52.756 2.6 166 -2.3 102840 85
2003-02-13 07:39:56 51°15.055 2°52.727 2.2 174 -2.3 102840 85
2003-02-13 07:40:01 51°15.061 2°52.698 2.8 180 -2.3 102840 85
2003-02-13 07:40:06 51°15.067 2°52.668 3.1 173 -2.3 102840 85
2003-02-13 07:40:11 51°15.073 2°52.639 2.6 180 -2.3 102840 85
2003-02-13 07:40:16 51°15.08 2°52.61 2.6 182 -2.3 102840 84
2003-02-13 07:40:21 51°15.086 2°52.58 2 186 -2.3 102840 84
2003-02-13 07:40:26 51°15.092 2°52.551 2.1 188 -2.3 102840 84
2003-02-13 07:40:31 51°15.099 2°52.522 2.2 178 -2.3 102840 84
2003-02-13 07:40:36 51°15.105 2°52.493 2.3 181 -2.3 102850 84
2003-02-13 07:40:41 51°15.111 2°52.463 2.1 197 -2.3 102850 84
2003-02-13 07:40:46 51°15.117 2°52.434 2.2 178 -2.3 102850 84
2003-02-13 07:40:52 51°15.125 2°52.399 1.8 170 -2.3 102850 84
2003-02-13 07:40:56 51°15.131 2°52.375 3 175 -2.3 102850 84
2003-02-13 07:41:01 51°15.137 2°52.346 2.3 172 -2.3 102850 84
2003-02-13 07:41:07 51°15.145 2°52.311 1.5 194 -2.3 102850 84
2003-02-13 07:41:11 51°15.15 2°52.287 2.5 180 -2.3 102850 84
2003-02-13 07:41:16 51°15.156 2°52.258 2.7 186 -2.3 102840 84
2003-02-13 07:41:21 51°15.163 2°52.229 2.2 181 -2.3 102840 84
2003-02-13 07:41:26 51°15.17 2°52.199 2.2 183 -2.3 102850 84
2003-02-13 07:41:31 51°15.176 2°52.17 2.4 177 -2.3 102850 84
2003-02-13 07:41:36 51°15.182 2°52.14 2.2 171 -2.2 102840 84
2003-02-13 07:41:41 51°15.189 2°52.111 2 180 -2.2 102840 84
2003-02-13 07:41:46 51°15.195 2°52.082 2 202 -2.2 102840 84
2003-02-13 07:41:51 51°15.202 2°52.052 1.9 194 -2.2 102840 84
2003-02-13 07:41:56 51°15.209 2°52.023 2.8 208 -2.2 102840 84
2003-02-13 07:42:01 51°15.215 2°51.993 3.1 161 -2.2 102840 84
2003-02-13 07:42:06 51°15.222 2°51.964 2.7 156 -2.2 102840 84
2003-02-13 07:42:11 51°15.228 2°51.935 3.1 167 -2.2 102840 84
2003-02-13 07:42:17 51°15.236 2°51.899 2.6 162 -2.2 102850 84
2003-02-13 07:42:22 51°15.242 2°51.87 2 165 -2.2 102850 84
2003-02-13 07:42:26 51°15.246 2°51.846 2.4 171 -2.2 102840 84
2003-02-13 07:42:31 51°15.251 2°51.816 1.6 183 -2.2 102840 84
2003-02-13 07:42:36 51°15.255 2°51.785 1.5 179 -2.2 102840 84
2003-02-13 07:42:41 51°15.26 2°51.755 1.5 178 -2.2 102840 84
2003-02-13 07:42:46 51°15.263 2°51.724 1 183 -2.2 102840 84
2003-02-13 07:42:51 51°15.265 2°51.694 1.4 198 -2.2 102840 84
2003-02-13 07:42:56 51°15.267 2°51.663 1.7 175 -2.2 102850 84
2003-02-13 07:43:01 51°15.269 2°51.632 2 189 -2.2 102850 84
2003-02-13 07:43:06 51°15.27 2°51.601 2.1 220 -2.2 102840 83
2003-02-13 07:43:11 51°15.271 2°51.57 1.1 169 -2.2 102840 83
2003-02-13 07:43:16 51°15.272 2°51.539 0.9 194 -2.2 102840 83
2003-02-13 07:43:21 51°15.271 2°51.508 1.6 317 -2.2 102840 83
2003-02-13 07:43:26 51°15.27 2°51.477 1.6 242 -2.2 102840 83
2003-02-13 07:43:31 51°15.268 2°51.446 1.5 303 -2.2 102840 83
2003-02-13 07:43:36 51°15.266 2°51.415 1.7 291 -2.2 102850 83
2003-02-13 07:43:42 51°15.264 2°51.379 1.9 291 -2.2 102850 83
2003-02-13 07:43:46 51°15.262 2°51.354 1.6 299 -2.1 102840 83
2003-02-13 07:43:51 51°15.259 2°51.323 2 294 -2.1 102840 83
2003-02-13 07:43:56 51°15.257 2°51.292 1.3 301 -2.1 102840 83
2003-02-13 07:44:02 51°15.253 2°51.256 1.4 293 -2.1 102840 83
2003-02-13 07:44:06 51°15.252 2°51.231 1.1 291 -2.1 102840 83
2003-02-13 07:44:11 51°15.249 2°51.201 1.1 280 -2.1 102840 83
2003-02-13 07:44:16 51°15.246 2°51.17 1.3 287 -2.1 102840 83
2003-02-13 07:44:21 51°15.242 2°51.14 1.6 250 -2.1 102840 83
2003-02-13 07:44:26 51°15.239 2°51.109 1.7 261 -2.1 102840 83
2003-02-13 07:44:32 51°15.235 2°51.073 1.4 249 -2.1 102840 83
2003-02-13 07:44:36 51°15.233 2°51.048 1.5 256 -2.1 102840 83
2003-02-13 07:44:40 51°15.23 2°51.024 2 260 -2.1 102840 83
2003-02-13 07:44:46 51°15.226 2°50.987 1.7 264 -2.1 102840 83
2003-02-13 07:44:51 51°15.223 2°50.956 1.8 255 -2.1 102840 83
2003-02-13 07:44:56 51°15.22 2°50.926 1.6 254 -2.1 102840 83
2003-02-13 07:45:01 51°15.217 2°50.895 2.3 262 -2.1 102840 83
2003-02-13 07:45:06 51°15.214 2°50.865 2.1 262 -2.1 102840 83
2003-02-13 07:45:11 51°15.211 2°50.834 2.4 276 -2.1 102840 83
2003-02-13 07:45:16 51°15.207 2°50.804 2.1 277 -2.1 102840 83
2003-02-13 07:45:20 51°15.205 2°50.779 2.6 259 -2.1 102840 83
2003-02-13 07:45:26 51°15.2 2°50.743 1.9 265 -2.1 102840 83
2003-02-13 07:45:31 51°15.197 2°50.712 1.9 265 -2.1 102840 83
2003-02-13 07:45:36 51°15.194 2°50.682 1.7 259 -2 102840 83
2003-02-13 07:45:41 51°15.191 2°50.651 2.1 265 -2 102840 83
2003-02-13 07:45:47 51°15.187 2°50.615 2.1 262 -2 102840 83
2003-02-13 07:45:51 51°15.184 2°50.59 1.8 259 -2 102840 83
2003-02-13 07:45:56 51°15.181 2°50.56 1.8 263 -2 102840 83
2003-02-13 07:46:01 51°15.178 2°50.529 2.3 270 -2 102840 83
2003-02-13 07:46:07 51°15.174 2°50.493 1.9 264 -2 102840 83
2003-02-13 07:46:11 51°15.171 2°50.469 1.6 264 -2 102840 83
2003-02-13 07:46:16 51°15.168 2°50.438 1.6 261 -2 102840 83
2003-02-13 07:46:21 51°15.165 2°50.407 1.7 262 -2 102840 83
2003-02-13 07:46:26 51°15.162 2°50.377 1.6 257 -2 102840 83
2003-02-13 07:46:31 51°15.158 2°50.346 2.3 273 -2 102840 83
2003-02-13 07:46:36 51°15.155 2°50.316 2.1 270 -2 102840 83
2003-02-13 07:46:41 51°15.152 2°50.285 2.9 279 -2 102840 83
2003-02-13 07:46:46 51°15.148 2°50.255 2.3 281 -2 102840 83
2003-02-13 07:46:51 51°15.145 2°50.224 2.4 287 -2 102840 83
2003-02-13 07:46:56 51°15.142 2°50.194 2 284 -2 102840 83
2003-02-13 07:47:01 51°15.139 2°50.163 2 292 -2 102840 83
2003-02-13 07:47:06 51°15.135 2°50.133 1.8 294 -2 102840 83
2003-02-13 07:47:11 51°15.132 2°50.103 1.8 291 -2 102840 83
2003-02-13 07:47:16 51°15.129 2°50.072 2.3 268 -1.9 102840 83
2003-02-13 07:47:22 51°15.126 2°50.035 2.4 248 -1.9 102840 83
2003-02-13 07:47:26 51°15.123 2°50.011 2.9 268 -2 102840 83
2003-02-13 07:47:31 51°15.12 2°49.98 2.8 281 -2 102840 83
2003-02-13 07:47:36 51°15.117 2°49.95 2.5 294 -1.9 102840 83
2003-02-13 07:47:41 51°15.114 2°49.92 2.2 286 -1.9 102840 83
2003-02-13 07:47:47 51°15.111 2°49.883 2 293 -1.9 102840 83
2003-02-13 07:47:51 51°15.108 2°49.859 1.9 294 -1.9 102840 83
2003-02-13 07:47:56 51°15.105 2°49.828 1.3 306 -1.9 102840 83
2003-02-13 07:48:01 51°15.101 2°49.798 0.9 301 -1.9 102840 83
2003-02-13 07:48:06 51°15.099 2°49.767 1 300 -1.9 102840 83
2003-02-13 07:48:11 51°15.095 2°49.737 1.2 288 -1.9 102840 83
2003-02-13 07:48:16 51°15.093 2°49.706 2 269 -1.8 102840 83
2003-02-13 07:48:22 51°15.089 2°49.67 1.8 280 -1.8 102840 83
2003-02-13 07:48:26 51°15.086 2°49.645 2 283 -1.8 102840 83
2003-02-13 07:48:31 51°15.083 2°49.615 2 278 -1.8 102840 83
2003-02-13 07:48:36 51°15.08 2°49.584 2.1 281 -1.8 102840 83
2003-02-13 07:48:41 51°15.077 2°49.553 1.8 283 -1.8 102840 83
2003-02-13 07:48:46 51°15.074 2°49.523 1.7 269 -1.8 102840 83
2003-02-13 07:48:51 51°15.071 2°49.492 2.9 278 -1.8 102840 83
2003-02-13 07:48:56 51°15.068 2°49.462 2.9 282 -1.8 102840 83
2003-02-13 07:49:02 51°15.065 2°49.425 2.9 284 -1.8 102840 83
2003-02-13 07:49:06 51°15.062 2°49.401 3.2 291 -1.8 102840 83
2003-02-13 07:49:11 51°15.059 2°49.37 3.1 292 -1.8 102840 83
2003-02-13 07:49:16 51°15.055 2°49.34 2.8 296 -1.8 102830 83
2003-02-13 07:49:21 51°15.052 2°49.309 2.8 286 -1.8 102830 83
2003-02-13 07:49:27 51°15.048 2°49.273 2.9 296 -1.8 102840 83
2003-02-13 07:49:31 51°15.046 2°49.248 3.5 297 -1.8 102840 83
2003-02-13 07:49:36 51°15.043 2°49.218 3.2 296 -1.8 102840 83
2003-02-13 07:49:42 51°15.039 2°49.181 2.7 297 -1.8 102840 83
2003-02-13 07:49:46 51°15.037 2°49.157 3 300 -1.8 102840 83
2003-02-13 07:49:51 51°15.033 2°49.126 3.1 302 -1.8 102840 83
2003-02-13 07:49:56 51°15.03 2°49.096 2.7 310 -1.8 102830 83
2003-02-13 07:50:01 51°15.027 2°49.065 2.9 309 -1.8 102830 83
2003-02-13 07:50:06 51°15.024 2°49.035 2.2 300 -1.8 102840 83
2003-02-13 07:50:11 51°15.021 2°49.004 2.4 310 -1.8 102840 83
2003-02-13 07:50:16 51°15.018 2°48.973 1.7 297 -1.7 102840 83
2003-02-13 07:50:21 51°15.015 2°48.942 2.2 297 -1.7 102840 83
2003-02-13 07:50:26 51°15.012 2°48.912 2 305 -1.7 102840 82
2003-02-13 07:50:31 51°15.009 2°48.881 1.8 297 -1.7 102840 82
2003-02-13 07:50:36 51°15.006 2°48.851 2.1 289 -1.8 102840 82
2003-02-13 07:50:41 51°15.003 2°48.82 1.3 282 -1.8 102840 82
2003-02-13 07:50:46 51°15 2°48.79 1.7 291 -1.8 102840 82
2003-02-13 07:50:51 51°14.997 2°48.759 1.5 281 -1.8 102840 82
2003-02-13 07:50:56 51°14.993 2°48.729 2 284 -1.8 102840 82
2003-02-13 07:51:01 51°14.991 2°48.699 2.3 290 -1.8 102840 82
2003-02-13 07:51:06 51°14.987 2°48.668 1.7 299 -1.7 102830 82
2003-02-13 07:51:11 51°14.984 2°48.638 1.4 315 -1.7 102830 82
2003-02-13 07:51:16 51°14.981 2°48.608 1.5 301 -1.7 102840 82
2003-02-13 07:51:22 51°14.977 2°48.571 2 298 -1.7 102840 82
2003-02-13 07:51:26 51°14.975 2°48.547 1.6 296 -1.7 102830 82
2003-02-13 07:51:31 51°14.972 2°48.517 1.8 313 -1.7 102830 82
2003-02-13 07:51:36 51°14.969 2°48.486 1.3 305 -1.7 102840 82
2003-02-13 07:51:41 51°14.965 2°48.456 2.2 290 -1.7 102840 82
2003-02-13 07:51:46 51°14.963 2°48.426 1.4 293 -1.7 102830 82
2003-02-13 07:51:51 51°14.959 2°48.396 1.8 294 -1.7 102830 82
2003-02-13 07:51:56 51°14.956 2°48.365 1 310 -1.7 102840 82
2003-02-13 07:52:01 51°14.953 2°48.335 1.2 304 -1.7 102840 82
2003-02-13 07:52:07 51°14.95 2°48.298 1.1 312 -1.7 102830 82
2003-02-13 07:52:11 51°14.947 2°48.274 0.9 319 -1.7 102830 82
2003-02-13 07:52:16 51°14.944 2°48.244 0.9 305 -1.7 102830 82
2003-02-13 07:52:21 51°14.941 2°48.214 0.9 280 -1.7 102830 82
2003-02-13 07:52:26 51°14.939 2°48.183 2 275 -1.7 102840 82
2003-02-13 07:52:31 51°14.935 2°48.153 1.5 262 -1.7 102840 82
2003-02-13 07:52:36 51°14.932 2°48.123 1.9 313 -1.8 102830 82
2003-02-13 07:52:42 51°14.929 2°48.086 2.2 278 -1.8 102830 82
2003-02-13 07:52:47 51°14.926 2°48.056 2.6 294 -1.7 102830 82
2003-02-13 07:52:51 51°14.923 2°48.032 2.3 287 -1.7 102830 82
2003-02-13 07:52:56 51°14.921 2°48.001 2.5 292 -1.7 102830 82
2003-02-13 07:53:01 51°14.917 2°47.971 2.6 293 -1.7 102830 82
2003-02-13 07:53:07 51°14.914 2°47.934 3 287 -1.7 102830 82
2003-02-13 07:53:11 51°14.911 2°47.91 3 295 -1.7 102830 82
2003-02-13 07:53:16 51°14.908 2°47.879 2.6 290 -1.6 102830 82
2003-02-13 07:53:21 51°14.905 2°47.849 2.9 287 -1.6 102830 82
2003-02-13 07:53:26 51°14.902 2°47.818 2.5 294 -1.7 102830 82
2003-02-13 07:53:31 51°14.899 2°47.788 2.5 281 -1.7 102830 82
2003-02-13 07:53:36 51°14.897 2°47.757 3 275 -1.6 102830 82
2003-02-13 07:53:41 51°14.893 2°47.727 2.9 280 -1.6 102830 82
2003-02-13 07:53:47 51°14.89 2°47.691 3.5 287 -1.6 102830 82
2003-02-13 07:53:51 51°14.887 2°47.666 2.8 283 -1.6 102830 82
2003-02-13 07:53:56 51°14.884 2°47.636 3.6 289 -1.6 102830 82
2003-02-13 07:54:02 51°14.881 2°47.599 2.4 292 -1.6 102830 82
2003-02-13 07:54:06 51°14.878 2°47.575 2.2 302 -1.6 102830 82
2003-02-13 07:54:11 51°14.876 2°47.544 2.3 283 -1.6 102830 82
2003-02-13 07:54:16 51°14.873 2°47.514 3.1 284 -1.6 102820 82
2003-02-13 07:54:21 51°14.87 2°47.484 2.6 292 -1.6 102820 82
2003-02-13 07:54:26 51°14.868 2°47.453 2.9 297 -1.6 102830 82
2003-02-13 07:54:31 51°14.865 2°47.423 2.6 300 -1.6 102830 82
2003-02-13 07:54:36 51°14.862 2°47.392 3.1 300 -1.6 102820 82
2003-02-13 07:54:41 51°14.859 2°47.362 2.9 302 -1.6 102820 82
2003-02-13 07:54:46 51°14.856 2°47.332 2.9 303 -1.6 102830 82
2003-02-13 07:54:51 51°14.853 2°47.301 2.6 304 -1.6 102830 82
2003-02-13 07:54:56 51°14.85 2°47.271 3.1 298 -1.6 102830 82
2003-02-13 07:55:01 51°14.847 2°47.241 2.3 302 -1.6 102830 82
2003-02-13 07:55:06 51°14.844 2°47.21 2.6 303 -1.6 102830 82
2003-02-13 07:55:11 51°14.841 2°47.18 2.7 285 -1.6 102830 82
2003-02-13 07:55:16 51°14.838 2°47.15 2.2 291 -1.6 102820 82
2003-02-13 07:55:21 51°14.835 2°47.12 1.7 297 -1.6 102820 82
2003-02-13 07:55:26 51°14.831 2°47.089 1.9 305 -1.5 102830 81
2003-02-13 07:55:31 51°14.829 2°47.059 2.2 305 -1.5 102830 81
2003-02-13 07:55:36 51°14.825 2°47.029 2 305 -1.6 102830 81
2003-02-13 07:55:42 51°14.822 2°46.993 1.7 304 -1.6 102830 81
2003-02-13 07:55:46 51°14.819 2°46.969 1.7 292 -1.5 102830 81
2003-02-13 07:55:51 51°14.816 2°46.939 1.5 298 -1.5 102830 81
2003-02-13 07:55:56 51°14.813 2°46.909 1.5 311 -1.6 102830 81
2003-02-13 07:56:01 51°14.81 2°46.879 1.2 292 -1.6 102830 81
2003-02-13 07:56:07 51°14.806 2°46.842 1.7 301 -1.6 102820 81
2003-02-13 07:56:11 51°14.804 2°46.818 2.2 278 -1.6 102820 81
2003-02-13 07:56:16 51°14.8 2°46.788 1.8 275 -1.6 102820 81
2003-02-13 07:56:21 51°14.798 2°46.757 1.8 283 -1.6 102820 81
2003-02-13 07:56:27 51°14.794 2°46.721 2 262 -1.6 102830 81
2003-02-13 07:56:31 51°14.792 2°46.697 2.5 277 -1.6 102830 81
2003-02-13 07:56:36 51°14.789 2°46.667 2.1 282 -1.6 102830 81
2003-02-13 07:56:42 51°14.785 2°46.631 2.2 295 -1.6 102830 81
2003-02-13 07:56:46 51°14.783 2°46.607 1.9 290 -1.5 102820 81
2003-02-13 07:56:51 51°14.779 2°46.577 2.1 283 -1.5 102820 81
2003-02-13 07:56:56 51°14.776 2°46.547 2.8 293 -1.5 102820 81
2003-02-13 07:57:01 51°14.773 2°46.517 2.5 301 -1.5 102820 81
2003-02-13 07:57:06 51°14.77 2°46.487 2.4 300 -1.5 102820 81
2003-02-13 07:57:11 51°14.767 2°46.457 1.7 298 -1.5 102820 81
2003-02-13 07:57:16 51°14.764 2°46.427 2.2 304 -1.5 102820 81
2003-02-13 07:57:21 51°14.761 2°46.397 1.5 285 -1.5 102820 81
2003-02-13 07:57:26 51°14.758 2°46.367 2.1 286 -1.5 102830 81
2003-02-13 07:57:31 51°14.754 2°46.337 1.7 281 -1.5 102830 81
2003-02-13 07:57:36 51°14.752 2°46.307 1.9 285 -1.5 102820 81
2003-02-13 07:57:40 51°14.75 2°46.283 2.4 287 -1.5 102820 81
2003-02-13 07:57:46 51°14.746 2°46.247 2.8 297 -1.5 102830 81
2003-02-13 07:57:51 51°14.743 2°46.217 2.1 308 -1.5 102830 81
2003-02-13 07:57:56 51°14.74 2°46.187 1.9 306 -1.5 102830 81
2003-02-13 07:58:00 51°14.738 2°46.163 1.6 312 -1.5 102830 81
2003-02-13 07:58:06 51°14.735 2°46.126 1.2 325 -1.5 102830 81
2003-02-13 07:58:11 51°14.731 2°46.096 1.9 301 -1.5 102830 81
2003-02-13 07:58:16 51°14.728 2°46.066 1.8 301 -1.5 102820 81
2003-02-13 07:58:22 51°14.725 2°46.03 1.8 312 -1.5 102820 81
2003-02-13 07:58:26 51°14.722 2°46.006 0.9 318 -1.5 102830 81
2003-02-13 07:58:31 51°14.72 2°45.976 1.3 311 -1.5 102830 81
2003-02-13 07:58:36 51°14.716 2°45.946 1.4 307 -1.5 102830 81
2003-02-13 07:58:41 51°14.714 2°45.915 1.8 299 -1.5 102830 81
2003-02-13 07:58:46 51°14.71 2°45.885 1.3 280 -1.5 102830 81
2003-02-13 07:58:51 51°14.708 2°45.855 1.1 301 -1.5 102830 81
2003-02-13 07:58:56 51°14.704 2°45.825 0.6 339 -1.5 102830 81
2003-02-13 07:59:01 51°14.701 2°45.795 0.4 308 -1.5 102830 81
2003-02-13 07:59:07 51°14.697 2°45.759 0.9 349 -1.5 102830 80
2003-02-13 07:59:11 51°14.695 2°45.734 0.7 297 -1.5 102830 80
2003-02-13 07:59:16 51°14.692 2°45.704 1 298 -1.5 102830 80
2003-02-13 07:59:21 51°14.689 2°45.674 1 247 -1.5 102830 80
2003-02-13 07:59:26 51°14.687 2°45.643 0.5 252 -1.5 102830 80
2003-02-13 07:59:31 51°14.684 2°45.613 1.8 242 -1.5 102830 80
2003-02-13 07:59:36 51°14.681 2°45.582 1.9 230 -1.5 102830 80
2003-02-13 07:59:41 51°14.678 2°45.552 1.6 249 -1.5 102830 80
2003-02-13 07:59:47 51°14.675 2°45.515 1.8 251 -1.5 102830 80
2003-02-13 07:59:52 51°14.671 2°45.485 2.3 286 -1.5 102830 80
2003-02-13 07:59:56 51°14.67 2°45.46 2.5 266 -1.4 102830 80
2003-02-13 08:00:01 51°14.666 2°45.43 3 280 -1.4 102830 80
2003-02-13 08:00:06 51°14.664 2°45.399 2.9 276 -1.4 102830 81
2003-02-13 08:00:12 51°14.66 2°45.362 2.3 281 -1.4 102830 81
2003-02-13 08:00:16 51°14.657 2°45.338 2.8 278 -1.4 102830 81
2003-02-13 08:00:21 51°14.654 2°45.307 2.9 286 -1.4 102830 81
2003-02-13 08:00:27 51°14.65 2°45.27 2.9 295 -1.4 102830 81
2003-02-13 08:00:31 51°14.647 2°45.246 2.1 292 -1.4 102830 81
2003-02-13 08:00:36 51°14.645 2°45.216 2.3 297 -1.4 102830 81
2003-02-13 08:00:41 51°14.642 2°45.185 2.4 295 -1.4 102830 81
2003-02-13 08:00:47 51°14.638 2°45.148 2 298 -1.4 102830 81
2003-02-13 08:00:51 51°14.635 2°45.124 2.3 300 -1.4 102830 81
2003-02-13 08:00:56 51°14.633 2°45.093 2.8 280 -1.3 102830 81
2003-02-13 08:01:00 51°14.63 2°45.069 2.5 264 -1.3 102830 81
2003-02-13 08:01:06 51°14.626 2°45.033 2.1 282 -1.3 102830 81
2003-02-13 08:01:11 51°14.623 2°45.002 2.9 282 -1.3 102830 81
2003-02-13 08:01:16 51°14.62 2°44.972 2.9 283 -1.3 102830 81
2003-02-13 08:01:20 51°14.617 2°44.947 2.7 278 -1.3 102830 81
2003-02-13 08:01:27 51°14.613 2°44.904 2.5 285 -1.3 102830 81
2003-02-13 08:01:31 51°14.61 2°44.88 2.7 288 -1.3 102830 81
2003-02-13 08:01:36 51°14.607 2°44.85 2.7 296 -1.3 102830 81
2003-02-13 08:01:41 51°14.604 2°44.819 2.4 293 -1.3 102830 81
2003-02-13 08:01:46 51°14.601 2°44.789 2.3 289 -1.3 102830 81
2003-02-13 08:01:51 51°14.598 2°44.758 2.1 287 -1.3 102830 81
2003-02-13 08:01:56 51°14.595 2°44.728 1.9 278 -1.3 102830 80
2003-02-13 08:02:02 51°14.591 2°44.691 1.5 273 -1.3 102830 80
2003-02-13 08:02:06 51°14.589 2°44.667 2.2 283 -1.3 102830 80
2003-02-13 08:02:11 51°14.586 2°44.637 2 283 -1.3 102830 80
2003-02-13 08:02:16 51°14.583 2°44.607 2.3 282 -1.3 102820 80
2003-02-13 08:02:21 51°14.579 2°44.576 2.5 287 -1.3 102820 80
2003-02-13 08:02:26 51°14.576 2°44.546 2 288 -1.3 102830 80
2003-02-13 08:02:31 51°14.572 2°44.516 2.5 295 -1.3 102830 80
2003-02-13 08:02:36 51°14.569 2°44.486 2 296 -1.3 102830 80
2003-02-13 08:02:41 51°14.565 2°44.456 2 304 -1.3 102830 80
2003-02-13 08:02:46 51°14.562 2°44.425 1.9 305 -1.3 102830 80
2003-02-13 08:02:51 51°14.558 2°44.395 1.9 300 -1.3 102830 80
2003-02-13 08:02:56 51°14.555 2°44.364 1.7 297 -1.3 102830 80
2003-02-13 08:03:01 51°14.551 2°44.334 2.7 291 -1.3 102830 80
2003-02-13 08:03:06 51°14.547 2°44.303 2.2 286 -1.3 102830 80
2003-02-13 08:03:11 51°14.544 2°44.272 1.4 339 -1.3 102830 80
2003-02-13 08:03:16 51°14.54 2°44.242 1.2 312 -1.3 102830 80
2003-02-13 08:03:21 51°14.537 2°44.211 1.6 299 -1.3 102830 80
2003-02-13 08:03:26 51°14.534 2°44.18 0.9 282 -1.3 102830 80
2003-02-13 08:03:31 51°14.53 2°44.15 1.2 295 -1.3 102830 80
2003-02-13 08:03:36 51°14.527 2°44.119 1 279 -1.3 102820 80
2003-02-13 08:03:41 51°14.523 2°44.089 0.9 284 -1.3 102820 80
2003-02-13 08:03:46 51°14.52 2°44.058 1.3 294 -1.3 102830 80
2003-02-13 08:03:51 51°14.516 2°44.028 1.2 296 -1.3 102830 80
2003-02-13 08:03:56 51°14.512 2°43.998 1.3 297 -1.3 102830 80
2003-02-13 08:04:01 51°14.508 2°43.967 1.6 292 -1.3 102830 80
2003-02-13 08:04:07 51°14.504 2°43.931 2.1 306 -1.3 102830 79
2003-02-13 08:04:11 51°14.501 2°43.906 1.6 309 -1.3 102830 79
2003-02-13 08:04:16 51°14.498 2°43.876 2.2 310 -1.3 102830 80
2003-02-13 08:04:21 51°14.494 2°43.845 1.7 301 -1.3 102830 80
2003-02-13 08:04:26 51°14.49 2°43.815 1.6 305 -1.3 102830 79
2003-02-13 08:04:31 51°14.487 2°43.785 1.3 316 -1.3 102830 79
2003-02-13 08:04:36 51°14.483 2°43.755 1.2 315 -1.3 102830 79
2003-02-13 08:04:41 51°14.479 2°43.724 0.6 331 -1.3 102830 79
2003-02-13 08:04:46 51°14.475 2°43.694 0.7 340 -1.3 102830 79
2003-02-13 08:04:51 51°14.472 2°43.664 0.6 328 -1.3 102830 79
2003-02-13 08:04:56 51°14.468 2°43.634 1.3 308 -1.3 102830 79
2003-02-13 08:05:01 51°14.464 2°43.604 1.8 322 -1.3 102830 79
2003-02-13 08:05:06 51°14.46 2°43.574 1.5 277 -1.3 102830 79
2003-02-13 08:05:11 51°14.457 2°43.544 1.3 317 -1.3 102830 79
2003-02-13 08:05:16 51°14.453 2°43.514 0.6 341 -1.3 102820 79
2003-02-13 08:05:21 51°14.45 2°43.484 0.6 331 -1.3 102820 79
2003-02-13 08:05:27 51°14.445 2°43.447 1.7 299 -1.2 102830 79
2003-02-13 08:05:31 51°14.443 2°43.423 2 291 -1.2 102830 79
2003-02-13 08:05:36 51°14.438 2°43.392 2.4 290 -1.2 102830 79
2003-02-13 08:05:41 51°14.436 2°43.362 1.5 340 -1.2 102830 79
2003-02-13 08:05:46 51°14.431 2°43.332 1.1 333 -1.2 102820 79
2003-02-13 08:05:52 51°14.428 2°43.296 0.9 309 -1.2 102820 79
2003-02-13 08:05:56 51°14.424 2°43.272 0.9 339 -1.2 102820 79
2003-02-13 08:06:01 51°14.421 2°43.241 0.6 323 -1.2 102820 79
2003-02-13 08:06:06 51°14.417 2°43.211 0.5 319 -1.2 102830 79
2003-02-13 08:06:11 51°14.413 2°43.181 1.2 268 -1.2 102830 79
2003-02-13 08:06:16 51°14.409 2°43.151 1.2 300 -1.2 102820 79
2003-02-13 08:06:21 51°14.406 2°43.122 1 304 -1.2 102820 79
2003-02-13 08:06:26 51°14.401 2°43.092 0.9 1 -1.2 102830 79
2003-02-13 08:06:31 51°14.398 2°43.061 1.3 317 -1.2 102830 79
2003-02-13 08:06:36 51°14.394 2°43.031 1.5 265 -1.1 102820 79
2003-02-13 08:06:41 51°14.391 2°43.001 2.1 262 -1.1 102820 79
2003-02-13 08:06:46 51°14.387 2°42.971 1.7 249 -1.1 102830 79
2003-02-13 08:06:51 51°14.384 2°42.941 2.4 280 -1.1 102830 79
2003-02-13 08:06:56 51°14.381 2°42.91 2.7 254 -1.1 102820 79
2003-02-13 08:07:02 51°14.376 2°42.874 2.2 254 -1.1 102820 79
2003-02-13 08:07:06 51°14.374 2°42.85 1.8 261 -1.1 102820 79
2003-02-13 08:07:11 51°14.37 2°42.819 2.3 244 -1.1 102820 79
2003-02-13 08:07:16 51°14.367 2°42.789 1.8 278 -1.1 102820 79
2003-02-13 08:07:21 51°14.363 2°42.759 1.6 259 -1.1 102820 79
2003-02-13 08:07:26 51°14.36 2°42.729 1.4 266 -1 102820 79
2003-02-13 08:07:31 51°14.356 2°42.699 1.7 244 -1 102820 79
2003-02-13 08:07:36 51°14.353 2°42.669 2 271 -1 102820 80
2003-02-13 08:07:41 51°14.349 2°42.639 1.6 265 -1 102820 80
2003-02-13 08:07:46 51°14.345 2°42.609 1.8 255 -1 102820 80
2003-02-13 08:07:51 51°14.342 2°42.579 1.7 249 -1 102820 80
2003-02-13 08:07:56 51°14.338 2°42.549 1.4 256 -1 102820 80
2003-02-13 08:08:01 51°14.335 2°42.519 1.7 254 -1 102820 80
2003-02-13 08:08:07 51°14.331 2°42.482 1.7 252 -1 102820 80
2003-02-13 08:08:11 51°14.328 2°42.458 2 250 -1 102820 80
2003-02-13 08:08:16 51°14.324 2°42.428 2 257 -1 102820 79
2003-02-13 08:08:21 51°14.321 2°42.398 2 287 -1 102820 79
2003-02-13 08:08:26 51°14.317 2°42.368 2.1 293 -1 102820 79
2003-02-13 08:08:31 51°14.313 2°42.338 3.1 282 -1 102820 79
2003-02-13 08:08:36 51°14.309 2°42.308 3.5 288 -1 102820 79
2003-02-13 08:08:41 51°14.304 2°42.278 3.7 278 -1 102820 79
2003-02-13 08:08:46 51°14.3 2°42.248 3.3 283 -1 102820 79
2003-02-13 08:08:51 51°14.295 2°42.218 3.4 283 -1 102820 79
2003-02-13 08:08:56 51°14.291 2°42.188 3.1 287 -1 102820 79
2003-02-13 08:09:01 51°14.286 2°42.158 3 294 -1 102820 79
2003-02-13 08:09:07 51°14.281 2°42.122 3.2 294 -0.9 102820 79
2003-02-13 08:09:11 51°14.277 2°42.098 2.9 286 -0.9 102820 79
2003-02-13 08:09:16 51°14.272 2°42.068 2.1 309 -0.9 102820 79
2003-02-13 08:09:21 51°14.268 2°42.038 2.2 298 -0.9 102820 79
2003-02-13 08:09:26 51°14.263 2°42.009 1.9 277 -1 102820 79
2003-02-13 08:09:31 51°14.259 2°41.979 2.1 293 -1 102820 79
2003-02-13 08:09:36 51°14.254 2°41.949 2 282 -1 102820 79
2003-02-13 08:09:40 51°14.25 2°41.926 1.9 284 -1 102820 79
2003-02-13 08:09:46 51°14.245 2°41.89 2 288 -1 102820 79
2003-02-13 08:09:51 51°14.241 2°41.86 1.6 278 -1 102820 79
2003-02-13 08:09:56 51°14.236 2°41.831 2 305 -1 102830 79
2003-02-13 08:10:02 51°14.23 2°41.795 2.2 299 -1 102830 79
2003-02-13 08:10:06 51°14.227 2°41.771 2.4 287 -1 102820 79
2003-02-13 08:10:11 51°14.223 2°41.741 3.3 289 -1 102820 79
2003-02-13 08:10:16 51°14.218 2°41.712 2.1 287 -0.9 102820 79
2003-02-13 08:10:21 51°14.214 2°41.682 1.8 301 -0.9 102820 79
2003-02-13 08:10:26 51°14.208 2°41.653 1.8 299 -0.9 102820 79
2003-02-13 08:10:31 51°14.203 2°41.624 3.2 304 -0.9 102820 79
2003-02-13 08:10:36 51°14.198 2°41.596 2.6 300 -0.9 102820 79
2003-02-13 08:10:41 51°14.193 2°41.571 1.2 320 -0.9 102820 79
2003-02-13 08:10:46 51°14.188 2°41.547 1.7 339 -0.9 102820 79
2003-02-13 08:10:51 51°14.183 2°41.524 1.7 310 -0.9 102820 79
2003-02-13 08:10:56 51°14.178 2°41.502 1 341 -0.9 102820 79
2003-02-13 08:11:01 51°14.174 2°41.482 1.7 351 -0.9 102820 79
2003-02-13 08:11:07 51°14.169 2°41.459 2.7 352 -0.9 102820 79
2003-02-13 08:11:11 51°14.166 2°41.445 3.8 358 -0.9 102820 79
2003-02-13 08:11:16 51°14.161 2°41.428 3.7 355 -0.8 102820 79
2003-02-13 08:11:21 51°14.157 2°41.413 2.4 344 -0.8 102820 79
2003-02-13 08:11:26 51°14.153 2°41.398 1.8 340 -0.8 102820 79
2003-02-13 08:11:31 51°14.148 2°41.385 3.1 345 -0.8 102820 79
2003-02-13 08:11:36 51°14.144 2°41.372 2.7 350 -0.8 102820 79
2003-02-13 08:11:41 51°14.139 2°41.36 1.1 342 -0.8 102820 79
2003-02-13 08:11:47 51°14.134 2°41.346 1.1 342 -0.8 102820 79
2003-02-13 08:11:51 51°14.13 2°41.338 2.5 343 -0.8 102820 79
2003-02-13 08:11:56 51°14.126 2°41.328 0.7 338 -0.8 102820 79
2003-02-13 08:12:01 51°14.122 2°41.318 3 344 -0.8 102820 79
2003-02-13 08:12:06 51°14.118 2°41.308 2.5 351 -0.8 102820 79
2003-02-13 08:12:11 51°14.114 2°41.299 4.1 8 -0.8 102820 79
2003-02-13 08:12:16 51°14.11 2°41.29 5.4   -0.8 102820 79
2003-02-13 08:12:21 51°14.106 2°41.281 5.4 6 -0.8 102820 79
2003-02-13 08:12:26 51°14.103 2°41.272 4.2 6 -0.8 102820 79
2003-02-13 08:12:31 51°14.1 2°41.263 4.2 6 -0.8 102820 79
2003-02-13 08:12:36 51°14.097 2°41.255 5.6 10 -0.8 102820 78
2003-02-13 08:12:41 51°14.095 2°41.246 4.9 16 -0.8 102820 78
2003-02-13 08:12:46 51°14.093 2°41.238 5.1 22 -0.8 102820 78
2003-02-13 08:12:51 51°14.091 2°41.229 5.4 24 -0.8 102820 78
2003-02-13 08:12:56 51°14.09 2°41.221 5.2 36 -0.8 102830 78
2003-02-13 08:13:01 51°14.089 2°41.213 5.1 42 -0.8 102830 78
2003-02-13 08:13:06 51°14.089 2°41.206 5.1 43 -0.9 102820 78
2003-02-13 08:13:11 51°14.089 2°41.198 4.7 52 -0.9 102820 78
2003-02-13 08:13:16 51°14.089 2°41.191 4.5 56 -0.9 102820 77
2003-02-13 08:13:21 51°14.09 2°41.184 4.9 60 -0.9 102820 77
2003-02-13 08:13:27 51°14.091 2°41.176 4.9 64 -0.9 102820 77
2003-02-13 08:13:31 51°14.092 2°41.17 4.6 65 -0.9 102820 77
2003-02-13 08:13:36 51°14.094 2°41.164 4.4 71 -0.8 102820 77
2003-02-13 08:13:41 51°14.095 2°41.158 5.6 72 -0.8 102820 77
2003-02-13 08:13:46 51°14.097 2°41.152 6 81 -0.8 102820 77
2003-02-13 08:13:51 51°14.099 2°41.147 5.3 79 -0.8 102820 77
2003-02-13 08:13:56 51°14.102 2°41.142 6.2 90 -0.8 102810 77
2003-02-13 08:14:02 51°14.105 2°41.136 5.2 98 -0.8 102810 77
2003-02-13 08:14:06 51°14.107 2°41.132 5.7 96 -0.8 102820 77
2003-02-13 08:14:11 51°14.11 2°41.128 5.8 102 -0.8 102820 77
2003-02-13 08:14:16 51°14.112 2°41.124 6.2 98 -0.8 102810 77
2003-02-13 08:14:21 51°14.115 2°41.12 5.2 100 -0.8 102810 77
2003-02-13 08:14:26 51°14.118 2°41.116 6.7 99 -0.8 102810 77
2003-02-13 08:14:31 51°14.121 2°41.113 6.7 102 -0.8 102810 77
2003-02-13 08:14:36 51°14.123 2°41.11 6 102 -0.8 102810 77
2003-02-13 08:14:41 51°14.126 2°41.108 5.3 105 -0.8 102810 77
2003-02-13 08:14:46 51°14.128 2°41.106 6.2 118 -0.8 102810 77
2003-02-13 08:14:51 51°14.129 2°41.105 7.1 100 -0.8 102810 77
2003-02-13 08:14:56 51°14.131 2°41.104 7.6 117 -0.8 102810 77
2003-02-13 08:15:02 51°14.132 2°41.103 6.5 117 -0.8 102810 77
2003-02-13 08:15:06 51°14.133 2°41.102 6.4 119 -0.8 102810 77
2003-02-13 08:15:11 51°14.134 2°41.102 6.5 121 -0.8 102810 77
2003-02-13 08:15:16 51°14.134 2°41.101 7.6 121 -0.8 102800 77
2003-02-13 08:15:22 51°14.136 2°41.1 7.5 118 -0.8 102800 77
2003-02-13 08:15:26 51°14.136 2°41.1 6.8 119 -0.8 102800 76
2003-02-13 08:15:31 51°14.137 2°41.099 7.5 122 -0.8 102800 76
2003-02-13 08:15:36 51°14.137 2°41.099 7.3 119 -0.9 102800 76
2003-02-13 08:15:41 51°14.138 2°41.098 6.3 120 -0.9 102800 76
2003-02-13 08:15:47 51°14.139 2°41.098 6.6 116 -0.9 102810 76
2003-02-13 08:15:51 51°14.139 2°41.097 6.7 118 -0.9 102810 76
2003-02-13 08:15:56 51°14.14 2°41.097 7.6 120 -0.9 102810 75
2003-02-13 08:16:01 51°14.141 2°41.097 6.6 121 -0.9 102810 75
2003-02-13 08:16:07 51°14.142 2°41.096 6.9 122 -0.9 102810 76
2003-02-13 08:16:11 51°14.142 2°41.096 6.9 121 -0.9 102810 76
2003-02-13 08:16:16 51°14.143 2°41.095 6.1 120 -0.9 102810 76
2003-02-13 08:16:21 51°14.144 2°41.094 6.3 122 -0.9 102810 76
2003-02-13 08:16:26 51°14.144 2°41.094 6.8 124 -0.9 102810 76
2003-02-13 08:16:31 51°14.145 2°41.094 5.9 119 -0.9 102810 76
2003-02-13 08:16:36 51°14.146 2°41.093 5.8 118 -0.9 102810 76
2003-02-13 08:16:41 51°14.147 2°41.092 6.7 119 -0.9 102810 76
2003-02-13 08:16:46 51°14.147 2°41.092 7 126 -0.9 102810 76
2003-02-13 08:16:51 51°14.148 2°41.091 6.1 123 -0.9 102810 76
2003-02-13 08:16:56 51°14.149 2°41.091 6.5 126 -1 102810 75
2003-02-13 08:17:01 51°14.149 2°41.09 5.9 124 -1 102810 75
2003-02-13 08:17:06 51°14.15 2°41.09 6.1 124 -1 102810 75
2003-02-13 08:17:11 51°14.151 2°41.089 5.7 126 -1 102810 75
2003-02-13 08:17:16 51°14.151 2°41.088 5.7 122 -1 102810 76
2003-02-13 08:17:21 51°14.152 2°41.088 6.2 123 -1 102810 76
2003-02-13 08:17:27 51°14.153 2°41.087 6.8 119 -1 102810 76
2003-02-13 08:17:31 51°14.154 2°41.087 6.7 124 -1 102810 76
2003-02-13 08:17:36 51°14.155 2°41.086 5.7 126 -0.9 102810 76
2003-02-13 08:17:41 51°14.156 2°41.085 5.8 116 -0.9 102810 76
2003-02-13 08:17:46 51°14.157 2°41.085 6.4 128 -1 102810 76
2003-02-13 08:17:51 51°14.158 2°41.084 6.2 126 -1 102810 76
2003-02-13 08:17:56 51°14.159 2°41.083 7.1 121 -0.9 102810 76
2003-02-13 08:18:02 51°14.16 2°41.082 7.1 126 -0.9 102810 76
2003-02-13 08:18:06 51°14.162 2°41.082 7.5 123 -0.9 102810 77
2003-02-13 08:18:11 51°14.163 2°41.081 7.2 128 -0.9 102810 77
2003-02-13 08:18:16 51°14.164 2°41.08 6 123 -0.9 102810 77
2003-02-13 08:18:21 51°14.165 2°41.079 7 115 -0.9 102810 77
2003-02-13 08:18:26 51°14.166 2°41.079 6.4 118 -0.9 102810 77
2003-02-13 08:18:31 51°14.168 2°41.078 6.7 117 -0.9 102810 77
2003-02-13 08:18:36 51°14.169 2°41.077 6.3 121 -0.9 102800 76
2003-02-13 08:18:41 51°14.17 2°41.077 6.2 114 -0.9 102800 76
2003-02-13 08:18:46 51°14.171 2°41.076 6 117 -0.9 102810 76
2003-02-13 08:18:51 51°14.172 2°41.075 5.6 127 -0.9 102810 76
2003-02-13 08:18:56 51°14.174 2°41.075 5.9 114 -0.9 102810 76
2003-02-13 08:19:01 51°14.175 2°41.074 5.9 119 -0.9 102810 76
2003-02-13 08:19:06 51°14.177 2°41.073 6.2 115 -0.9 102810 76
2003-02-13 08:19:11 51°14.178 2°41.073 6.3 122 -0.9 102810 76
2003-02-13 08:19:16 51°14.179 2°41.072 6.3 105 -0.9 102810 76
2003-02-13 08:19:21 51°14.181 2°41.071 5.6 110 -0.9 102810 76
2003-02-13 08:19:27 51°14.183 2°41.07 6.7 109 -0.9 102810 77
2003-02-13 08:19:31 51°14.184 2°41.07 6.5 107 -0.9 102810 77
2003-02-13 08:19:36 51°14.185 2°41.069 6.1 112 -0.9 102810 77
2003-02-13 08:19:42 51°14.187 2°41.068 6.8 105 -0.9 102810 77
2003-02-13 08:19:46 51°14.188 2°41.067 6.4 114 -0.9 102810 77
2003-02-13 08:19:52 51°14.19 2°41.067 6.9 122 -0.9 102810 77
2003-02-13 08:19:56 51°14.191 2°41.066 6.1 119 -0.9 102810 77
2003-02-13 08:20:02 51°14.193 2°41.065 5.4 111 -0.9 102810 77
2003-02-13 08:20:06 51°14.194 2°41.064 5.6 125 -0.9 102810 77
2003-02-13 08:20:11 51°14.196 2°41.063 6.2 121 -0.9 102810 77
2003-02-13 08:20:16 51°14.197 2°41.062 6.4 117 -0.9 102810 77
2003-02-13 08:20:21 51°14.199 2°41.061 5.2 124 -0.9 102810 77
2003-02-13 08:20:27 51°14.2 2°41.06 6.2 127 -0.9 102810 77
2003-02-13 08:20:31 51°14.202 2°41.06 7.3 124 -0.9 102810 77
2003-02-13 08:20:36 51°14.203 2°41.059 7.6 121 -0.9 102810 77
2003-02-13 08:20:41 51°14.205 2°41.058 7.7 117 -0.9 102810 77
2003-02-13 08:20:46 51°14.206 2°41.057 8 124 -0.9 102810 77
2003-02-13 08:20:51 51°14.208 2°41.056 6.7 122 -0.9 102810 77
2003-02-13 08:20:56 51°14.209 2°41.055 7.2 106 -0.9 102810 77
2003-02-13 08:21:01 51°14.211 2°41.054 7.5 109 -0.9 102810 77
2003-02-13 08:21:06 51°14.213 2°41.053 7.2 111 -0.9 102810 77
2003-02-13 08:21:12 51°14.215 2°41.052 7 116 -0.9 102810 77
2003-02-13 08:21:16 51°14.216 2°41.051 6.8 115 -0.9 102800 77
2003-02-13 08:21:21 51°14.218 2°41.05 6.7 119 -0.9 102800 77
2003-02-13 08:21:27 51°14.22 2°41.049 5.8 112 -0.9 102800 77
2003-02-13 08:21:31 51°14.221 2°41.048 5.7 105 -0.9 102800 77
2003-02-13 08:21:36 51°14.222 2°41.047 6 109 -0.9 102810 77
2003-02-13 08:21:41 51°14.224 2°41.046 5.8 103 -0.9 102810 77
2003-02-13 08:21:46 51°14.226 2°41.045 6.9 99 -0.9 102810 76
2003-02-13 08:21:51 51°14.228 2°41.044 6.6 101 -0.9 102810 76
2003-02-13 08:21:56 51°14.23 2°41.043 6.9 101 -0.9 102810 76
2003-02-13 08:22:01 51°14.231 2°41.042 6.6 105 -0.9 102810 76
2003-02-13 08:22:06 51°14.233 2°41.04 6.5 106 -0.9 102810 76
2003-02-13 08:22:11 51°14.235 2°41.039 5.5 115 -0.9 102810 76
2003-02-13 08:22:16 51°14.237 2°41.038 6.3 123 -1 102810 76
2003-02-13 08:22:22 51°14.239 2°41.036 5.6 120 -1 102810 76
2003-02-13 08:22:26 51°14.24 2°41.035 6.2 122 -1 102810 76
2003-02-13 08:22:31 51°14.242 2°41.035 5.3 110 -1 102810 76
2003-02-13 08:22:36 51°14.244 2°41.034 4.8 113 -1 102810 76
2003-02-13 08:22:41 51°14.246 2°41.032 5.4 119 -1 102810 76
2003-02-13 08:22:47 51°14.248 2°41.03 5.8 115 -0.9 102810 76
2003-02-13 08:22:51 51°14.25 2°41.028 5.7 115 -0.9 102810 76
2003-02-13 08:22:56 51°14.253 2°41.025 5.2 115 -0.9 102810 77
2003-02-13 08:23:02 51°14.257 2°41.02 4.6 112 -0.9 102810 77
2003-02-13 08:23:06 51°14.259 2°41.016 5 104 -0.9 102810 77
2003-02-13 08:23:11 51°14.262 2°41.01 4.4 86 -0.9 102810 77
2003-02-13 08:23:16 51°14.265 2°41.003 4.7 80 -0.9 102810 77
2003-02-13 08:23:21 51°14.266 2°40.995 4.3 61 -0.9 102810 77
2003-02-13 08:23:26 51°14.267 2°40.987 4.1 48 -0.9 102810 77
2003-02-13 08:23:31 51°14.267 2°40.978 4.6 38 -0.9 102810 77
2003-02-13 08:23:36 51°14.267 2°40.97 3.6 33 -0.9 102820 77
2003-02-13 08:23:41 51°14.265 2°40.961 3.9 18 -0.9 102820 77
2003-02-13 08:23:47 51°14.262 2°40.951 2.7 333 -0.8 102810 77
2003-02-13 08:23:51 51°14.26 2°40.945 4.4 357 -0.8 102810 77
2003-02-13 08:23:56 51°14.256 2°40.938 4.9 342 -0.9 102820 77
2003-02-13 08:24:01 51°14.252 2°40.932 1.9 325 -0.9 102820 77
2003-02-13 08:24:06 51°14.247 2°40.927 1.2 323 -0.8 102820 78
2003-02-13 08:24:11 51°14.243 2°40.924 0.7 324 -0.8 102820 78
2003-02-13 08:24:16 51°14.238 2°40.921 2 329 -0.9 102820 78
2003-02-13 08:24:21 51°14.234 2°40.918 1 328 -0.9 102820 78
2003-02-13 08:24:27 51°14.23 2°40.916 1.1 308 -0.9 102820 77
2003-02-13 08:24:31 51°14.228 2°40.914 1.5 326 -0.9 102820 77
2003-02-13 08:24:36 51°14.226 2°40.913 2 334 -0.9 102820 77
2003-02-13 08:24:40 51°14.224 2°40.912 1.1 334 -0.9 102820 77
2003-02-13 08:24:46 51°14.221 2°40.91 1.2 324 -0.9 102820 77
2003-02-13 08:24:51 51°14.22 2°40.909 0.9 332 -0.9 102820 77
2003-02-13 08:24:56 51°14.217 2°40.908 0.8 333 -0.9 102820 77
2003-02-13 08:25:01 51°14.216 2°40.908 1 347 -0.9 102820 77
2003-02-13 08:25:06 51°14.215 2°40.907 1.6 337 -0.9 102810 78
2003-02-13 08:25:11 51°14.214 2°40.906 0.7 332 -0.9 102810 78
2003-02-13 08:25:16 51°14.212 2°40.906 1.3 319 -0.9 102810 78
2003-02-13 08:25:21 51°14.211 2°40.905 2 326 -0.9 102810 78
2003-02-13 08:25:26 51°14.21 2°40.905 1.8 323 -0.9 102820 78
2003-02-13 08:25:31 51°14.208 2°40.905 1.7 328 -0.9 102820 78
2003-02-13 08:25:36 51°14.207 2°40.904 1.7 331 -0.8 102810 78
2003-02-13 08:25:41 51°14.206 2°40.904 1.4 331 -0.8 102810 78
2003-02-13 08:25:46 51°14.205 2°40.903 1 347 -0.9 102820 78
2003-02-13 08:25:51 51°14.203 2°40.903 0.6 332 -0.9 102820 78
2003-02-13 08:25:56 51°14.202 2°40.903 1.5 324 -0.9 102820 78
2003-02-13 08:26:02 51°14.2 2°40.902 0.9 326 -0.9 102820 78
2003-02-13 08:26:06 51°14.199 2°40.902 2.7 310 -1 102820 77
2003-02-13 08:26:11 51°14.198 2°40.902 1.3 319 -1 102820 77
2003-02-13 08:26:16 51°14.197 2°40.902 2.4 326 -1 102820 77
2003-02-13 08:26:20 51°14.196 2°40.902 2.3 316 -1 102820 77
2003-02-13 08:26:27 51°14.194 2°40.902 3 316 -1 102820 77
2003-02-13 08:26:31 51°14.193 2°40.902 1.8 320 -1 102820 77
2003-02-13 08:26:36 51°14.191 2°40.902 2.2 327 -1 102820 77
2003-02-13 08:26:41 51°14.19 2°40.902 1.8 323 -1 102820 77
2003-02-13 08:26:47 51°14.189 2°40.902 1.5 325 -1 102810 77
2003-02-13 08:26:51 51°14.188 2°40.902 1.8 322 -1 102810 77
2003-02-13 08:26:56 51°14.186 2°40.902 1 347 -1.1 102820 77
2003-02-13 08:27:01 51°14.185 2°40.902 1.8 309 -1.1 102820 77
2003-02-13 08:27:06 51°14.184 2°40.902 3.1 328 -1.1 102820 77
2003-02-13 08:27:11 51°14.182 2°40.902 4.8 301 -1.1 102820 77
2003-02-13 08:27:16 51°14.181 2°40.902 3.9 316 -1 102810 78
2003-02-13 08:27:21 51°14.18 2°40.903 5.1 295 -1 102810 78
2003-02-13 08:27:26 51°14.178 2°40.903 5.5 304 -1 102810 78
2003-02-13 08:27:31 51°14.177 2°40.903 5.7 299 -1 102810 78
2003-02-13 08:27:36 51°14.176 2°40.904 5.7 301 -0.9 102810 79
2003-02-13 08:27:41 51°14.175 2°40.904 5.7 300 -0.9 102810 79
2003-02-13 08:27:46 51°14.173 2°40.904 4.9 305 -0.9 102810 79
2003-02-13 08:27:51 51°14.172 2°40.905 6.3 295 -0.9 102810 79
2003-02-13 08:27:56 51°14.171 2°40.905 6 297 -0.9 102810 79
2003-02-13 08:28:01 51°14.169 2°40.905 5.7 300 -0.9 102810 79
2003-02-13 08:28:06 51°14.168 2°40.906 4 320 -0.9 102810 79
2003-02-13 08:28:11 51°14.167 2°40.907 5.2 293 -0.9 102810 79
2003-02-13 08:28:16 51°14.166 2°40.907 4.9 300 -0.9 102810 79
2003-02-13 08:28:21 51°14.165 2°40.907 6.7 305 -0.9 102810 79
2003-02-13 08:28:26 51°14.163 2°40.908 6.3 304 -0.9 102810 79
2003-02-13 08:28:31 51°14.162 2°40.909 6 304 -0.9 102810 79
2003-02-13 08:28:36 51°14.161 2°40.909 6.2 301 -0.9 102810 79
2003-02-13 08:28:41 51°14.16 2°40.91 6.9 309 -0.9 102810 79
2003-02-13 08:28:46 51°14.159 2°40.91 5.9 301 -0.9 102820 79
2003-02-13 08:28:51 51°14.157 2°40.911 4.7 299 -0.9 102820 79
2003-02-13 08:28:56 51°14.156 2°40.912 5.7 300 -0.9 102810 79
2003-02-13 08:29:01 51°14.155 2°40.913 5.6 302 -0.9 102810 79
2003-02-13 08:29:06 51°14.154 2°40.913 5.7 304 -1 102810 78
2003-02-13 08:29:11 51°14.153 2°40.914 4.2 303 -1 102810 78
2003-02-13 08:29:16 51°14.151 2°40.915 4.8 292 -1 102810 78
2003-02-13 08:29:22 51°14.15 2°40.916 7.3 298 -1 102810 78
2003-02-13 08:29:26 51°14.149 2°40.916 5.8 301 -1 102810 79
2003-02-13 08:29:31 51°14.148 2°40.917 5.7 302 -1 102810 79
2003-02-13 08:29:36 51°14.146 2°40.918 6.5 300 -0.9 102810 79
2003-02-13 08:29:41 51°14.145 2°40.919 5.7 302 -0.9 102810 79
2003-02-13 08:29:46 51°14.144 2°40.919 6.2 302 -0.9 102810 79
2003-02-13 08:29:52 51°14.143 2°40.92 5.6 295 -0.9 102810 79
2003-02-13 08:29:56 51°14.142 2°40.921 5.4 300 -0.9 102810 79
2003-02-13 08:30:01 51°14.141 2°40.922 7.2 294 -0.9 102810 79
2003-02-13 08:30:06 51°14.14 2°40.923 7.5 297 -0.9 102810 79
2003-02-13 08:30:11 51°14.139 2°40.923 7 298 -0.9 102810 79
2003-02-13 08:30:16 51°14.137 2°40.924 7.2 299 -0.9 102810 79
2003-02-13 08:30:21 51°14.136 2°40.925 7.4 299 -0.9 102810 79
2003-02-13 08:30:26 51°14.135 2°40.926 7.3 296 -0.9 102810 79
2003-02-13 08:30:31 51°14.134 2°40.927 6.8 298 -0.9 102810 79
2003-02-13 08:30:36 51°14.133 2°40.928 6.2 297 -0.9 102810 79
2003-02-13 08:30:41 51°14.132 2°40.929 6.1 304 -0.9 102810 79
2003-02-13 08:30:46 51°14.131 2°40.929 6.8 301 -0.9 102810 78
2003-02-13 08:30:52 51°14.13 2°40.931 6 305 -0.9 102810 78
2003-02-13 08:30:56 51°14.129 2°40.931 6.5 302 -1 102810 78
2003-02-13 08:31:01 51°14.128 2°40.932 5.8 302 -1 102810 78
2003-02-13 08:31:06 51°14.127 2°40.933 5.9 301 -0.9 102800 78
2003-02-13 08:31:11 51°14.126 2°40.934 5.6 301 -0.9 102800 78
2003-02-13 08:31:16 51°14.124 2°40.935 6.4 301 -0.9 102810 79
2003-02-13 08:31:21 51°14.123 2°40.936 6.7 301 -0.9 102810 79
2003-02-13 08:31:26 51°14.122 2°40.937 5.1 301 -0.9 102810 79
2003-02-13 08:31:31 51°14.121 2°40.938 7.4 300 -0.9 102810 79
2003-02-13 08:31:36 51°14.12 2°40.938 5.6 299 -0.9 102810 79
2003-02-13 08:31:41 51°14.119 2°40.939 5.5 301 -0.9 102810 79
2003-02-13 08:31:47 51°14.118 2°40.94 8.1 301 -1 102810 79
2003-02-13 08:31:51 51°14.117 2°40.941 6.1 300 -1 102810 79
2003-02-13 08:31:56 51°14.116 2°40.942 6.5 300 -1 102810 78
2003-02-13 08:32:02 51°14.115 2°40.943 7.4 296 -1 102810 78
2003-02-13 08:32:06 51°14.114 2°40.944 7.3 299 -1 102810 78
2003-02-13 08:32:11 51°14.113 2°40.945 7.3 301 -1 102810 78
2003-02-13 08:32:16 51°14.112 2°40.946 6.2 302 -0.9 102810 79
2003-02-13 08:32:22 51°14.11 2°40.947 7 301 -0.9 102810 79
2003-02-13 08:32:26 51°14.11 2°40.948 7.9 295 -0.9 102800 79
2003-02-13 08:32:31 51°14.109 2°40.95 7.2 300 -0.9 102800 79
2003-02-13 08:32:36 51°14.107 2°40.951 7.6 300 -0.9 102810 79
2003-02-13 08:32:41 51°14.106 2°40.952 7 296 -0.9 102810 79
2003-02-13 08:32:46 51°14.105 2°40.953 6.9 301 -0.9 102810 79
2003-02-13 08:32:52 51°14.104 2°40.954 6.3 303 -0.9 102810 79
2003-02-13 08:32:56 51°14.103 2°40.955 5.9 297 -0.9 102810 79
2003-02-13 08:33:01 51°14.102 2°40.956 6.5 300 -0.9 102810 79
2003-02-13 08:33:06 51°14.101 2°40.958 7.6 298 -0.9 102800 79
2003-02-13 08:33:11 51°14.1 2°40.959 7.4 287 -0.9 102800 79
2003-02-13 08:33:16 51°14.099 2°40.96 7.9 287 -0.9 102810 79
2003-02-13 08:33:21 51°14.098 2°40.962 7 288 -0.9 102810 79
2003-02-13 08:33:27 51°14.097 2°40.963 7.1 287 -0.9 102810 79
2003-02-13 08:33:31 51°14.096 2°40.964 7.7 290 -0.9 102810 79
2003-02-13 08:33:36 51°14.095 2°40.965 7.6 301 -0.9 102800 79
2003-02-13 08:33:41 51°14.094 2°40.967 8.4 294 -0.9 102800 79
2003-02-13 08:33:46 51°14.094 2°40.968 8.1 293 -0.9 102800 79
2003-02-13 08:33:51 51°14.093 2°40.97 7.8 290 -0.9 102800 79
2003-02-13 08:33:56 51°14.092 2°40.971 8.4 284 -0.9 102810 79
2003-02-13 08:34:01 51°14.091 2°40.972 8.1 291 -0.9 102810 79
2003-02-13 08:34:07 51°14.09 2°40.974 8.2 289 -0.8 102800 79
2003-02-13 08:34:11 51°14.089 2°40.975 7.7 289 -0.8 102800 79
2003-02-13 08:34:16 51°14.088 2°40.976 7.4 287 -0.8 102790 79
2003-02-13 08:34:22 51°14.087 2°40.978 7.4 287 -0.8 102790 79
2003-02-13 08:34:26 51°14.087 2°40.979 8.2 287 -0.9 102800 79
2003-02-13 08:34:32 51°14.086 2°40.981 8.5 290 -0.9 102800 79
2003-02-13 08:34:36 51°14.085 2°40.982 8.2 288 -0.9 102800 79
2003-02-13 08:34:41 51°14.084 2°40.983 7.7 290 -0.9 102800 79
2003-02-13 08:34:47 51°14.083 2°40.985 7.5 288 -0.9 102800 79
2003-02-13 08:34:51 51°14.083 2°40.986 7.6 289 -0.9 102800 79
2003-02-13 08:34:56 51°14.082 2°40.987 7.4 288 -0.9 102800 78
2003-02-13 08:35:01 51°14.082 2°40.989 7.2 286 -0.9 102800 78
2003-02-13 08:35:06 51°14.081 2°40.99 7 288 -1 102800 78
2003-02-13 08:35:11 51°14.08 2°40.991 7.9 293 -1 102800 78
2003-02-13 08:35:16 51°14.08 2°40.993 8.5 290 -1 102800 78
2003-02-13 08:35:21 51°14.079 2°40.994 8.6 292 -1 102800 78
2003-02-13 08:35:26 51°14.079 2°40.996 8.8 288 -1 102800 78
2003-02-13 08:35:31 51°14.078 2°40.997 8.5 284 -1 102800 78
2003-02-13 08:35:36 51°14.077 2°40.998 7.7 286 -1 102800 78
2003-02-13 08:35:41 51°14.076 2°41 7.3 286 -1 102800 78
2003-02-13 08:35:46 51°14.076 2°41.001 7.9 287 -1 102800 78
2003-02-13 08:35:51 51°14.075 2°41.002 7.4 286 -1 102800 78
2003-02-13 08:35:56 51°14.075 2°41.004 7.8 281 -1 102800 78
2003-02-13 08:36:01 51°14.074 2°41.005 7.8 271 -1 102800 78
2003-02-13 08:36:07 51°14.073 2°41.007 7.3 281 -1 102800 78
2003-02-13 08:36:11 51°14.073 2°41.008 8.2 283 -1 102800 78
2003-02-13 08:36:16 51°14.073 2°41.01 8.7 283 -1 102800 78
2003-02-13 08:36:21 51°14.072 2°41.011 7.9 284 -1 102800 78
2003-02-13 08:36:26 51°14.071 2°41.013 7.7 282 -1 102790 78
2003-02-13 08:36:32 51°14.071 2°41.014 8.1 281 -1 102790 78
2003-02-13 08:36:36 51°14.07 2°41.015 7.5 282 -1 102800 78
2003-02-13 08:36:41 51°14.07 2°41.016 7.1 284 -1 102800 78
2003-02-13 08:36:46 51°14.069 2°41.018 7.3 281 -1 102800 78
2003-02-13 08:36:51 51°14.068 2°41.019 8 280 -1 102800 78
2003-02-13 08:36:56 51°14.068 2°41.021 7.6 281 -0.8 102800 78
2003-02-13 08:37:01 51°14.067 2°41.022 7.4 281 -0.8 102800 78
2003-02-13 08:37:06 51°14.066 2°41.023 7.1 281 -1 102790 78
2003-02-13 08:37:11 51°14.066 2°41.025 8.1 283 -1 102790 78
2003-02-13 08:37:16 51°14.065 2°41.026 7.7 285 -1 102800 78
2003-02-13 08:37:22 51°14.064 2°41.028 7.5 292 -1 102800 78
2003-02-13 08:37:26 51°14.063 2°41.029 7.8 290 -1 102800 78
2003-02-13 08:37:31 51°14.063 2°41.03 7.7 303 -1 102800 78
2003-02-13 08:37:36 51°14.062 2°41.031 7.8 297 -1 102790 78
2003-02-13 08:37:42 51°14.061 2°41.033 7.6 291 -1 102790 78
2003-02-13 08:37:46 51°14.06 2°41.034 8.2 292 -1 102800 78
2003-02-13 08:37:51 51°14.06 2°41.035 7.8 294 -1 102800 78
2003-02-13 08:37:56 51°14.059 2°41.036 8.3 297 -1 102800 78
2003-02-13 08:38:01 51°14.058 2°41.037 9.1 298 -1 102800 78
2003-02-13 08:38:06 51°14.057 2°41.039 8.8 297 -0.9 102790 78
2003-02-13 08:38:11 51°14.056 2°41.04 9.1 301 -0.9 102790 78
2003-02-13 08:38:16 51°14.055 2°41.041 8.4 291 -0.9 102800 78
2003-02-13 08:38:21 51°14.055 2°41.043 8.2 297 -0.9 102800 78
2003-02-13 08:38:26 51°14.054 2°41.044 8.2 293 -0.9 102800 78
2003-02-13 08:38:31 51°14.053 2°41.045 7.6 292 -0.9 102800 78
2003-02-13 08:38:36 51°14.052 2°41.046 7.4 297 -0.9 102800 78
2003-02-13 08:38:41 51°14.051 2°41.047 6.7 294 -0.9 102800 78
2003-02-13 08:38:46 51°14.05 2°41.049 7 291 -0.9 102800 78
2003-02-13 08:38:51 51°14.049 2°41.05 7.1 289 -0.9 102800 78
2003-02-13 08:38:56 51°14.048 2°41.051 7.6 289 -1 102790 78
2003-02-13 08:39:01 51°14.047 2°41.053 8.1 293 -1 102790 78
2003-02-13 08:39:06 51°14.046 2°41.054 8.3 299 -1 102800 78
2003-02-13 08:39:12 51°14.044 2°41.056 8.2 294 -1 102800 78
2003-02-13 08:39:16 51°14.043 2°41.057 8.6 302 -1 102800 78
2003-02-13 08:39:21 51°14.042 2°41.058 7.2 302 -1 102800 78
2003-02-13 08:39:26 51°14.041 2°41.059 6.9 301 -0.9 102790 78
2003-02-13 08:39:31 51°14.04 2°41.061 8 296 -0.9 102790 78
2003-02-13 08:39:36 51°14.038 2°41.062 7.6 299 -0.9 102790 78
2003-02-13 08:39:41 51°14.037 2°41.063 6.7 299 -0.9 102790 78
2003-02-13 08:39:47 51°14.035 2°41.064 4.3 303 -0.9 102800 78
2003-02-13 08:39:52 51°14.034 2°41.065 6 299 -0.9 102800 78
2003-02-13 08:39:56 51°14.032 2°41.066 6.5 302 -0.9 102800 78
2003-02-13 08:40:01 51°14.031 2°41.067 6.8 311 -0.9 102800 78
2003-02-13 08:40:06 51°14.029 2°41.068 5.3 302 -0.9 102800 78
2003-02-13 08:40:11 51°14.028 2°41.069 4.1 298 -0.9 102800 78
2003-02-13 08:40:16 51°14.026 2°41.07 3.6 301 -0.9 102800 79
2003-02-13 08:40:20 51°14.025 2°41.071 4.2 319 -0.9 102800 79
2003-02-13 08:40:26 51°14.022 2°41.072 3.4 315 -0.9 102800 78
2003-02-13 08:40:31 51°14.021 2°41.072 6.4 304 -0.9 102800 78
2003-02-13 08:40:36 51°14.019 2°41.073 6.6 309 -0.9 102800 78
2003-02-13 08:40:41 51°14.017 2°41.073 3.8 313 -0.9 102800 78
2003-02-13 08:40:46 51°14.016 2°41.074 2.6 327 -0.9 102800 78